createdAt,value
2023-07-31T00:00:43.550Z,20.59
2023-07-31T00:03:52.309Z,20.59
2023-07-31T00:07:07.609Z,20.50
2023-07-31T00:10:09.930Z,20.41
2023-07-31T00:13:24.550Z,20.32
2023-07-31T00:16:39.687Z,20.27
2023-07-31T00:19:41.941Z,20.23
2023-07-31T00:22:56.563Z,20.19
2023-07-31T00:26:05.142Z,20.11
2023-07-31T00:29:13.575Z,20.00
2023-07-31T00:32:22.176Z,19.92
2023-07-31T00:35:36.591Z,19.82
2023-07-31T00:38:51.559Z,19.79
2023-07-31T00:41:53.401Z,19.78
2023-07-31T00:45:08.568Z,19.74
2023-07-31T00:48:17.566Z,19.63
2023-07-31T00:51:28.827Z,19.64
2023-07-31T00:54:50.610Z,19.69
2023-07-31T00:57:59.167Z,19.70
2023-07-31T01:01:07.625Z,19.69
2023-07-31T01:04:23.618Z,19.73
2023-07-31T01:07:40.683Z,19.87
2023-07-31T01:11:03.622Z,20.09
2023-07-31T01:14:12.112Z,20.26
2023-07-31T01:17:20.740Z,20.35
2023-07-31T01:20:31.647Z,20.40
2023-07-31T01:24:09.611Z,20.44
2023-07-31T01:27:21.569Z,20.36
2023-07-31T01:30:34.425Z,20.39
2023-07-31T01:33:44.567Z,20.35
2023-07-31T01:36:53.296Z,20.30
2023-07-31T01:40:08.600Z,20.24
2023-07-31T01:43:23.585Z,20.17
2023-07-31T01:46:32.178Z,20.17
2023-07-31T01:49:46.613Z,20.13
2023-07-31T01:52:48.511Z,20.16
2023-07-31T01:56:03.598Z,20.07
2023-07-31T01:59:05.551Z,20.06
2023-07-31T02:02:20.653Z,20.10
2023-07-31T02:05:29.587Z,20.09
2023-07-31T02:08:38.119Z,20.11
2023-07-31T02:11:52.625Z,20.07
2023-07-31T02:15:16.343Z,20.04
2023-07-31T02:18:26.811Z,19.94
2023-07-31T02:21:41.641Z,19.95
2023-07-31T02:24:50.211Z,19.88
2023-07-31T02:28:04.628Z,19.85
2023-07-31T02:31:06.504Z,19.77
2023-07-31T02:34:21.579Z,19.72
2023-07-31T02:37:30.633Z,19.70
2023-07-31T02:40:47.588Z,19.68
2023-07-31T02:43:55.620Z,19.65
2023-07-31T02:47:10.602Z,19.65
2023-07-31T02:50:12.499Z,19.62
2023-07-31T02:53:27.592Z,19.63
2023-07-31T02:56:35.641Z,19.64
2023-07-31T02:59:50.587Z,19.66
2023-07-31T03:02:59.195Z,19.63
2023-07-31T03:06:07.638Z,19.66
2023-07-31T03:09:16.153Z,19.68
2023-07-31T03:12:24.664Z,19.58
2023-07-31T03:15:33.228Z,19.60
2023-07-31T03:18:41.652Z,19.60
2023-07-31T03:21:50.187Z,19.49
2023-07-31T03:24:58.600Z,19.49
2023-07-31T03:28:07.293Z,19.58
2023-07-31T03:31:22.715Z,19.54
2023-07-31T03:34:37.648Z,19.59
2023-07-31T03:37:52.620Z,19.57
2023-07-31T03:41:00.625Z,19.55
2023-07-31T03:44:15.599Z,19.54
2023-07-31T03:50:56.623Z,19.59
2023-07-31T03:54:04.899Z,19.63
2023-07-31T03:57:19.640Z,19.62
2023-07-31T04:00:34.658Z,19.72
2023-07-31T04:03:43.156Z,19.66
2023-07-31T04:06:51.631Z,19.60
2023-07-31T04:10:01.306Z,19.70
2023-07-31T04:13:16.625Z,19.65
2023-07-31T04:16:18.516Z,19.68
2023-07-31T04:19:33.639Z,19.78
2023-07-31T04:22:41.656Z,19.76
2023-07-31T04:25:50.262Z,19.88
2023-07-31T04:28:58.637Z,19.88
2023-07-31T04:32:07.478Z,19.90
2023-07-31T04:35:22.631Z,19.90
2023-07-31T04:38:30.645Z,19.96
2023-07-31T04:41:45.640Z,19.93
2023-07-31T04:44:54.644Z,19.91
2023-07-31T04:48:03.332Z,19.94
2023-07-31T04:51:18.633Z,20.01
2023-07-31T04:54:33.940Z,20.02
2023-07-31T04:57:42.656Z,20.05
2023-07-31T05:00:51.185Z,20.10
2023-07-31T05:04:05.696Z,20.14
2023-07-31T05:07:20.654Z,20.07
2023-07-31T05:10:35.626Z,20.04
2023-07-31T05:13:44.202Z,20.04
2023-07-31T05:16:58.689Z,20.01
2023-07-31T05:20:00.658Z,20.02
2023-07-31T05:23:15.676Z,19.97
2023-07-31T05:26:19.334Z,20.03
2023-07-31T05:29:34.631Z,20.05
2023-07-31T05:32:49.653Z,20.15
2023-07-31T05:35:51.668Z,20.15
2023-07-31T05:39:06.664Z,20.31
2023-07-31T05:42:15.213Z,20.30
2023-07-31T05:45:23.684Z,20.30
2023-07-31T05:48:38.642Z,20.24
2023-07-31T05:51:46.651Z,20.20
2023-07-31T05:55:08.654Z,20.16
2023-07-31T05:58:23.653Z,20.28
2023-07-31T06:01:32.380Z,20.51
2023-07-31T06:04:47.988Z,20.67
2023-07-31T06:07:56.705Z,20.74
2023-07-31T06:11:05.318Z,20.86
2023-07-31T06:14:20.666Z,20.88
2023-07-31T06:17:35.650Z,21.09
2023-07-31T06:20:44.262Z,20.96
2023-07-31T06:23:52.680Z,20.90
2023-07-31T06:27:07.642Z,20.97
2023-07-31T06:30:16.663Z,21.00
2023-07-31T06:33:25.823Z,21.04
2023-07-31T06:36:34.663Z,21.17
2023-07-31T06:39:43.230Z,21.34
2023-07-31T06:42:58.670Z,21.50
2023-07-31T06:46:14.738Z,21.59
2023-07-31T06:49:23.204Z,21.52
2023-07-31T06:52:31.667Z,21.60
2023-07-31T06:55:53.717Z,21.64
2023-07-31T06:59:08.640Z,21.84
2023-07-31T07:02:23.767Z,21.70
2023-07-31T07:05:32.323Z,21.74
2023-07-31T07:08:40.678Z,21.74
2023-07-31T07:11:49.277Z,21.45
2023-07-31T07:15:03.728Z,21.45
2023-07-31T07:18:12.399Z,21.27
2023-07-31T07:21:27.712Z,21.35
2023-07-31T07:24:29.921Z,21.33
2023-07-31T07:27:44.722Z,21.11
2023-07-31T07:30:46.633Z,21.18
2023-07-31T07:34:01.762Z,21.23
2023-07-31T07:37:10.673Z,21.35
2023-07-31T07:40:19.394Z,21.49
2023-07-31T07:43:34.698Z,21.89
2023-07-31T07:46:36.709Z,21.97
2023-07-31T07:49:53.314Z,22.43
2023-07-31T07:53:01.680Z,22.45
2023-07-31T07:56:17.016Z,22.99
2023-07-31T07:59:31.657Z,23.12
2023-07-31T08:02:39.719Z,23.16
2023-07-31T08:05:54.669Z,22.59
2023-07-31T08:08:56.951Z,22.48
2023-07-31T08:12:13.666Z,22.51
2023-07-31T08:15:23.716Z,23.21
2023-07-31T08:18:32.740Z,23.61
2023-07-31T08:21:48.732Z,24.00
2023-07-31T08:25:03.737Z,24.24
2023-07-31T08:28:13.785Z,24.18
2023-07-31T08:31:22.288Z,24.29
2023-07-31T08:34:30.696Z,24.40
2023-07-31T08:37:41.243Z,24.56
2023-07-31T08:40:49.692Z,24.72
2023-07-31T08:44:05.688Z,24.90
2023-07-31T08:47:23.715Z,25.40
2023-07-31T08:50:32.719Z,25.14
2023-07-31T08:53:54.681Z,25.19
2023-07-31T08:57:10.703Z,24.97
2023-07-31T09:00:19.611Z,25.20
2023-07-31T09:03:35.785Z,25.05
2023-07-31T09:06:45.775Z,25.57
2023-07-31T09:10:00.710Z,25.39
2023-07-31T09:13:12.771Z,25.77
2023-07-31T09:16:35.810Z,25.71
2023-07-31T09:19:37.825Z,25.74
2023-07-31T09:22:53.703Z,25.87
2023-07-31T09:26:08.757Z,25.80
2023-07-31T09:29:27.757Z,25.77
2023-07-31T09:32:42.777Z,25.97
2023-07-31T09:35:44.984Z,26.18
2023-07-31T09:38:59.753Z,25.81
2023-07-31T09:42:08.723Z,25.85
2023-07-31T09:45:32.102Z,25.53
2023-07-31T09:48:48.539Z,25.34
2023-07-31T09:52:03.736Z,25.63
2023-07-31T09:55:18.732Z,25.76
2023-07-31T09:58:30.348Z,25.80
2023-07-31T10:01:47.719Z,25.94
2023-07-31T10:04:57.745Z,26.44
2023-07-31T10:08:14.725Z,26.66
2023-07-31T10:11:28.600Z,26.65
2023-07-31T10:14:44.712Z,26.86
2023-07-31T10:17:57.847Z,26.80
2023-07-31T10:21:13.761Z,26.51
2023-07-31T10:24:29.813Z,26.61
2023-07-31T10:27:31.678Z,26.77
2023-07-31T10:30:47.733Z,26.71
2023-07-31T10:33:59.123Z,27.17
2023-07-31T10:37:32.736Z,27.57
2023-07-31T10:40:54.735Z,27.44
2023-07-31T10:44:05.753Z,27.15
2023-07-31T10:47:22.902Z,27.55
2023-07-31T10:50:39.862Z,27.36
2023-07-31T10:53:55.714Z,26.97
2023-07-31T10:57:26.812Z,26.86
2023-07-31T11:00:45.802Z,27.28
2023-07-31T11:03:54.823Z,27.64
2023-07-31T11:07:03.644Z,28.04
2023-07-31T11:10:18.731Z,28.04
2023-07-31T11:13:33.789Z,27.65
2023-07-31T11:16:35.736Z,27.21
2023-07-31T11:19:53.759Z,27.37
2023-07-31T11:23:02.757Z,27.76
2023-07-31T11:26:18.771Z,27.21
2023-07-31T11:29:28.925Z,27.55
2023-07-31T11:32:37.771Z,27.81
2023-07-31T11:35:48.547Z,27.71
2023-07-31T11:38:56.756Z,27.82
2023-07-31T11:42:12.787Z,27.65
2023-07-31T11:45:27.868Z,28.00
2023-07-31T11:48:38.774Z,28.51
2023-07-31T11:51:47.568Z,28.66
2023-07-31T11:54:55.778Z,28.62
2023-07-31T11:58:17.760Z,28.59
2023-07-31T12:01:28.486Z,27.96
2023-07-31T12:04:37.800Z,27.81
2023-07-31T12:07:48.078Z,28.04
2023-07-31T12:10:58.752Z,27.89
2023-07-31T12:14:13.770Z,28.19
2023-07-31T12:17:16.050Z,28.30
2023-07-31T12:20:30.830Z,27.78
2023-07-31T12:23:40.774Z,27.95
2023-07-31T12:26:56.831Z,28.14
2023-07-31T12:30:06.128Z,28.19
2023-07-31T12:33:22.793Z,28.11
2023-07-31T12:36:38.111Z,28.12
2023-07-31T12:39:46.801Z,27.65
2023-07-31T12:42:55.414Z,28.31
2023-07-31T12:46:09.887Z,28.30
2023-07-31T12:49:18.301Z,28.10
2023-07-31T12:52:32.756Z,28.37
2023-07-31T12:55:41.115Z,28.10
2023-07-31T12:58:55.837Z,28.15
2023-07-31T13:02:03.801Z,27.97
2023-07-31T13:05:12.461Z,27.91
2023-07-31T13:08:28.803Z,28.29
2023-07-31T13:11:37.482Z,28.06
2023-07-31T13:14:54.155Z,27.74
2023-07-31T13:18:02.750Z,27.46
2023-07-31T13:21:10.865Z,28.05
2023-07-31T13:24:19.320Z,28.11
2023-07-31T13:27:33.807Z,28.17
2023-07-31T13:30:42.425Z,28.39
2023-07-31T13:33:56.877Z,28.04
2023-07-31T13:37:11.812Z,28.00
2023-07-31T13:40:13.687Z,27.90
2023-07-31T13:43:28.859Z,28.02
2023-07-31T13:46:37.629Z,27.66
2023-07-31T13:49:52.852Z,27.32
2023-07-31T13:53:01.348Z,27.45
2023-07-31T13:56:09.804Z,27.96
2023-07-31T13:59:18.403Z,27.61
2023-07-31T14:02:32.884Z,27.37
2023-07-31T14:05:34.880Z,27.38
2023-07-31T14:08:49.795Z,27.04
2023-07-31T14:11:51.716Z,27.26
2023-07-31T14:15:06.834Z,27.32
2023-07-31T14:18:21.967Z,27.34
2023-07-31T14:21:23.957Z,27.70
2023-07-31T14:24:39.948Z,27.52
2023-07-31T14:27:54.823Z,27.38
2023-07-31T14:31:02.843Z,27.01
2023-07-31T14:34:11.419Z,27.01
2023-07-31T14:37:25.842Z,27.21
2023-07-31T14:40:34.558Z,27.70
2023-07-31T14:43:42.824Z,27.99
2023-07-31T14:46:51.450Z,27.82
2023-07-31T14:49:59.909Z,27.98
2023-07-31T14:53:09.277Z,27.82
2023-07-31T14:56:30.874Z,27.89
2023-07-31T14:59:39.459Z,27.56
2023-07-31T15:02:48.929Z,27.31
2023-07-31T15:06:03.845Z,27.37
2023-07-31T15:09:05.782Z,27.70
2023-07-31T15:12:20.848Z,27.47
2023-07-31T15:15:29.856Z,27.55
2023-07-31T15:18:38.454Z,27.65
2023-07-31T15:21:52.830Z,27.32
2023-07-31T15:24:54.682Z,27.47
2023-07-31T15:28:09.857Z,27.64
2023-07-31T15:31:17.855Z,27.24
2023-07-31T15:34:26.498Z,27.20
2023-07-31T15:37:41.860Z,26.94
2023-07-31T15:40:56.919Z,27.32
2023-07-31T15:43:58.915Z,27.38
2023-07-31T15:47:13.821Z,27.34
2023-07-31T15:50:15.704Z,27.33
2023-07-31T15:53:30.846Z,27.31
2023-07-31T15:56:52.844Z,27.27
2023-07-31T16:00:01.424Z,27.02
2023-07-31T16:03:15.916Z,26.90
2023-07-31T16:06:24.452Z,26.90
2023-07-31T16:09:38.851Z,26.67
2023-07-31T16:12:40.797Z,26.63
2023-07-31T16:15:55.896Z,26.64
2023-07-31T16:18:57.877Z,26.68
2023-07-31T16:22:12.881Z,26.47
2023-07-31T16:25:27.868Z,26.61
2023-07-31T16:28:42.879Z,26.57
2023-07-31T16:31:57.821Z,26.33
2023-07-31T16:35:07.754Z,26.14
2023-07-31T16:38:15.915Z,26.36
2023-07-31T16:41:30.886Z,26.46
2023-07-31T16:44:39.763Z,26.22
2023-07-31T16:47:57.919Z,25.89
2023-07-31T16:50:59.958Z,25.73
2023-07-31T16:54:14.880Z,25.67
2023-07-31T16:57:36.868Z,25.66
2023-07-31T17:00:45.458Z,25.67
2023-07-31T17:03:54.053Z,25.57
2023-07-31T17:07:08.869Z,25.48
2023-07-31T17:10:16.952Z,25.44
2023-07-31T17:13:25.460Z,25.46
2023-07-31T17:16:33.900Z,25.48
2023-07-31T17:19:42.561Z,25.41
2023-07-31T17:22:57.861Z,25.39
2023-07-31T17:25:59.780Z,25.35
2023-07-31T17:29:14.893Z,25.33
2023-07-31T17:32:17.362Z,25.32
2023-07-31T17:35:35.873Z,25.31
2023-07-31T17:38:38.024Z,25.21
2023-07-31T17:41:52.888Z,25.18
2023-07-31T17:45:00.869Z,25.23
2023-07-31T17:48:15.904Z,25.25
2023-07-31T17:51:24.877Z,25.21
2023-07-31T17:54:39.881Z,25.22
2023-07-31T17:57:54.886Z,25.15
2023-07-31T18:01:03.970Z,25.04
2023-07-31T18:04:21.917Z,25.01
2023-07-31T18:07:36.934Z,24.93
2023-07-31T18:10:51.885Z,24.93
2023-07-31T18:14:08.767Z,24.82
2023-07-31T18:17:12.345Z,24.79
2023-07-31T18:20:27.912Z,24.73
2023-07-31T18:23:35.901Z,24.59
2023-07-31T18:26:44.420Z,24.59
2023-07-31T18:29:52.919Z,24.46
2023-07-31T18:33:07.975Z,24.41
2023-07-31T18:36:16.670Z,24.39
2023-07-31T18:39:24.951Z,24.28
2023-07-31T18:42:33.896Z,24.32
2023-07-31T18:45:48.920Z,24.29
2023-07-31T18:48:57.729Z,24.21
2023-07-31T18:52:12.916Z,24.16
2023-07-31T18:55:21.926Z,24.02
2023-07-31T18:58:30.466Z,23.94
2023-07-31T19:01:45.927Z,23.88
2023-07-31T19:04:54.916Z,23.78
2023-07-31T19:08:09.970Z,23.69
2023-07-31T19:11:31.362Z,23.63
2023-07-31T19:14:47.926Z,23.52
2023-07-31T19:17:58.343Z,23.38
2023-07-31T19:21:12.923Z,23.25
2023-07-31T19:24:15.048Z,23.20
2023-07-31T19:27:29.919Z,23.08
2023-07-31T19:30:39.017Z,22.94
2023-07-31T19:33:48.926Z,22.79
2023-07-31T19:36:57.503Z,22.69
2023-07-31T19:40:12.948Z,22.70
2023-07-31T19:43:27.933Z,22.61
2023-07-31T19:46:36.844Z,22.46
2023-07-31T19:49:45.968Z,22.41
2023-07-31T19:53:01.943Z,22.31
2023-07-31T19:56:10.718Z,22.15
2023-07-31T19:59:25.948Z,22.04
2023-07-31T20:02:34.891Z,21.86
2023-07-31T20:05:49.940Z,21.78
2023-07-31T20:08:58.925Z,21.76
2023-07-31T20:12:08.794Z,21.69
2023-07-31T20:15:26.928Z,21.56
2023-07-31T20:18:35.988Z,21.49
2023-07-31T20:21:44.936Z,21.14
2023-07-31T20:24:53.682Z,20.83
2023-07-31T20:28:09.944Z,20.73
2023-07-31T20:31:17.972Z,20.77
2023-07-31T20:34:26.788Z,20.80
2023-07-31T20:37:34.949Z,20.77
2023-07-31T20:40:45.706Z,20.78
2023-07-31T20:44:01.963Z,20.82
2023-07-31T20:47:10.926Z,20.85
2023-07-31T20:50:19.547Z,20.70
2023-07-31T20:53:33.945Z,20.48
2023-07-31T20:56:49.454Z,20.52
2023-07-31T21:00:03.934Z,20.47
2023-07-31T21:03:12.985Z,20.36
2023-07-31T21:06:27.939Z,20.39
2023-07-31T21:09:36.540Z,20.25
2023-07-31T21:12:51.020Z,20.24
2023-07-31T21:16:04.977Z,20.33
2023-07-31T21:19:13.497Z,20.36
2023-07-31T21:22:27.975Z,20.09
2023-07-31T21:25:37.283Z,20.11
2023-07-31T21:28:51.953Z,20.05
2023-07-31T21:32:07.054Z,20.12
2023-07-31T21:35:09.015Z,19.95
2023-07-31T21:38:23.936Z,20.11
2023-07-31T21:41:32.604Z,19.91
2023-07-31T21:44:40.953Z,19.89
2023-07-31T21:47:56.021Z,19.90
2023-07-31T21:51:11.003Z,19.73
2023-07-31T21:54:25.969Z,19.79
2023-07-31T21:57:41.259Z,19.87
2023-07-31T22:00:49.989Z,19.83
2023-07-31T22:04:04.965Z,19.80
2023-07-31T22:07:13.559Z,19.53
2023-07-31T22:10:21.967Z,19.56
2023-07-31T22:13:31.286Z,19.62
2023-07-31T22:16:40.259Z,19.56
2023-07-31T22:19:54.965Z,19.54
2023-07-31T22:22:56.836Z,19.67
2023-07-31T22:26:11.989Z,19.55
2023-07-31T22:29:26.960Z,19.46
2023-07-31T22:32:41.990Z,19.50
2023-07-31T22:35:49.971Z,19.29
2023-07-31T22:38:58.535Z,19.27
2023-07-31T22:42:06.992Z,19.27
2023-07-31T22:45:21.996Z,19.28
2023-07-31T22:48:23.831Z,19.36
2023-07-31T22:51:38.958Z,19.32
2023-07-31T22:54:46.988Z,19.24
2023-07-31T22:58:08.963Z,19.24
2023-07-31T23:01:16.999Z,19.32
2023-07-31T23:04:32.804Z,19.24
2023-07-31T23:07:34.840Z,19.13
2023-07-31T23:10:54.954Z,19.18
2023-07-31T23:14:03.007Z,19.18
2023-07-31T23:17:17.968Z,18.94
2023-07-31T23:20:19.903Z,18.84
2023-07-31T23:23:34.978Z,18.89
2023-07-31T23:26:49.990Z,18.93
2023-07-31T23:29:51.846Z,18.94
2023-07-31T23:33:06.991Z,18.93
2023-07-31T23:36:18.969Z,18.89
2023-07-31T23:39:34.013Z,19.00
2023-07-31T23:42:42.578Z,18.82
2023-07-31T23:45:51.046Z,18.71
2023-07-31T23:49:05.980Z,18.68
2023-07-31T23:52:08.833Z,18.62
2023-07-31T23:55:24.978Z,18.64
2023-07-31T23:58:40.000Z,18.73
